Vader, Washington
Current Conditions -  °F | °C
As of 10:35 AM on Thursday 29 Jan 2015 (Local Time) from KCLS Reporting Station
Overcast Overcast  
Wind Chill: 41°   Ceiling: 600
Heat Index: 45°   Visibility: 10mi
Dew Point: 43°   Wind: 7mph
Humidity: 93%   Direction: 20°NNE
Pressure: 30.36"   Gusts: NA
Location:  46.4°N, 122.96°W
Report Text: KCLS 291835Z AUTO 02006KT 10SM OVC006 07/06 A3036 RMK AO2
Loading
Personal Weather Stations






























Interactive Weather Map New forecast layout! Learn more

10-Day Weather Forecast

Advertisements
Track Severe Weather on mobile